Time;durP1;ratioP1;P1;durP2;ratioP2;P2;SDS_P1;SDS_P2;PMS_P1;PMS_P2;Temp;Humidity;BMP_temperature;BMP_pressure;BME280_temperature;BME280_humidity;BME280_pressure;Samples;Min_cycle;Max_cycle;Signal;HPM_P1;HPM_P2
2021/06/09 00:01:27;;;;;;;14.67;13.27;;;21.50;97.00;;;;;;4981423;28;20459;-85
2021/06/09 00:03:55;;;;;;;14.90;13.50;;;21.50;97.00;;;;;;4998640;28;20467;-85
2021/06/09 00:06:22;;;;;;;14.03;12.40;;;21.30;97.20;;;;;;4992432;28;20467;-83
2021/06/09 00:08:49;;;;;;;13.80;12.60;;;21.30;97.60;;;;;;5015929;28;20458;-84
2021/06/09 00:11:16;;;;;;;14.10;12.90;;;21.30;97.50;;;;;;4988775;28;20482;-85
2021/06/09 00:13:42;;;;;;;14.27;13.07;;;21.10;97.80;;;;;;5005175;28;20489;-83
2021/06/09 00:16:13;;;;;;;15.17;13.67;;;21.20;97.90;;;;;;4988740;28;20458;-87
2021/06/09 00:18:40;;;;;;;14.63;13.37;;;21.10;97.70;;;;;;4984978;28;20474;-85
2021/06/09 00:21:07;;;;;;;15.43;14.13;;;21.00;97.50;;;;;;5018535;28;20426;-88
2021/06/09 00:23:34;;;;;;;14.47;13.17;;;21.20;97.70;;;;;;5032704;28;20493;-88
2021/06/09 00:26:04;;;;;;;15.10;13.70;;;21.00;97.70;;;;;;5006176;28;20536;-87
2021/06/09 00:28:32;;;;;;;14.90;13.60;;;21.00;97.90;;;;;;5006637;28;20504;-85
2021/06/09 00:31:02;;;;;;;15.17;13.73;;;20.90;98.40;;;;;;4987562;28;20435;-84
2021/06/09 00:33:30;;;;;;;13.03;11.73;;;20.80;98.60;;;;;;4984746;28;20554;-85
2021/06/09 00:35:58;;;;;;;13.40;12.27;;;20.80;99.10;;;;;;4995757;28;20590;-86
2021/06/09 00:38:29;;;;;;;14.80;13.50;;;20.90;99.30;;;;;;5000093;28;20461;-87
2021/06/09 00:40:57;;;;;;;14.40;12.87;;;20.80;99.50;;;;;;4991890;28;20450;-87
2021/06/09 00:43:31;;;;;;;15.20;13.60;;;20.80;99.90;;;;;;4993554;28;20534;-85
2021/06/09 00:46:07;;;;;;;13.43;12.33;;;20.80;99.90;;;;;;5019633;28;20587;-88
2021/06/09 00:48:36;;;;;;;13.63;12.47;;;20.80;99.90;;;;;;5013353;28;20457;-86
2021/06/09 00:51:13;;;;;;;13.33;12.23;;;20.80;99.90;;;;;;4988133;28;20463;-86
2021/06/09 00:53:47;;;;;;;13.10;11.87;;;20.80;99.90;;;;;;4989495;28;20505;-87
2021/06/09 00:56:13;;;;;;;15.47;13.97;;;20.70;99.90;;;;;;5025833;28;20439;-83
2021/06/09 00:58:43;;;;;;;13.80;12.67;;;20.70;99.90;;;;;;4985556;28;21036;-84
2021/06/09 01:01:12;;;;;;;14.53;13.13;;;20.90;99.90;;;;;;4994060;28;20464;-86
2021/06/09 01:03:40;;;;;;;15.07;13.53;;;20.90;99.90;;;;;;5024521;28;20471;-88
2021/06/09 01:06:07;;;;;;;14.40;13.20;;;20.90;99.90;;;;;;4997702;28;20498;-87
2021/06/09 01:08:36;;;;;;;14.60;13.30;;;21.00;99.90;;;;;;5023152;28;20438;-84
2021/06/09 01:11:05;;;;;;;15.73;14.27;;;20.90;99.90;;;;;;5019163;28;20474;-83
2021/06/09 01:13:32;;;;;;;15.50;14.20;;;20.80;99.90;;;;;;4998790;28;20519;-86
2021/06/09 01:16:00;;;;;;;16.37;14.97;;;21.00;99.90;;;;;;5011579;28;20466;-86
2021/06/09 01:18:27;;;;;;;15.90;14.50;;;20.90;99.90;;;;;;4997348;28;20514;-84
2021/06/09 01:20:54;;;;;;;16.07;14.60;;;20.80;99.90;;;;;;4984624;28;20463;-85
2021/06/09 01:23:21;;;;;;;17.10;15.50;;;20.70;99.90;;;;;;4984445;28;20495;-85
2021/06/09 01:25:51;;;;;;;16.50;14.90;;;20.50;99.90;;;;;;4978413;28;20471;-86
2021/06/09 01:28:18;;;;;;;14.40;13.10;;;20.40;99.90;;;;;;4996891;28;20450;-86
2021/06/09 01:30:46;;;;;;;17.30;14.60;;;20.20;99.90;;;;;;5003686;28;20451;-87
2021/06/09 01:33:15;;;;;;;15.03;13.67;;;20.20;99.90;;;;;;4992496;28;20470;-85
2021/06/09 01:35:43;;;;;;;15.67;14.27;;;20.30;99.90;;;;;;4982379;28;20469;-84
2021/06/09 01:38:11;;;;;;;15.13;13.83;;;20.40;99.90;;;;;;4988320;28;20576;-86
2021/06/09 01:40:40;;;;;;;15.77;14.27;;;20.20;99.90;;;;;;5003395;28;20455;-86
2021/06/09 01:43:07;;;;;;;15.97;14.30;;;20.10;99.90;;;;;;4999662;28;21043;-86
2021/06/09 01:45:35;;;;;;;16.63;15.03;;;20.00;99.90;;;;;;4994164;28;20475;-84
2021/06/09 01:48:04;;;;;;;16.13;14.77;;;20.10;99.90;;;;;;4983548;28;20894;-85
2021/06/09 01:50:31;;;;;;;15.70;14.20;;;20.30;99.90;;;;;;4983531;28;20998;-86
2021/06/09 01:53:03;;;;;;;16.07;14.57;;;20.30;99.90;;;;;;5005581;28;20450;-86
2021/06/09 01:55:32;;;;;;;14.80;13.60;;;20.20;99.90;;;;;;4992688;28;20451;-84
2021/06/09 01:58:00;;;;;;;14.93;13.53;;;20.10;99.90;;;;;;5002091;28;20502;-84
2021/06/09 02:00:42;;;;;;;15.77;14.27;;;20.00;99.90;;;;;;4996444;28;20463;-83
2021/06/09 02:03:12;;;;;;;15.47;14.17;;;19.90;99.90;;;;;;4994701;28;20510;-84
2021/06/09 02:05:40;;;;;;;15.60;14.00;;;19.80;99.90;;;;;;5000040;28;20443;-86
2021/06/09 02:08:10;;;;;;;15.13;13.80;;;19.80;99.90;;;;;;5014484;28;20435;-83
2021/06/09 02:10:38;;;;;;;14.33;13.20;;;19.70;99.90;;;;;;4999894;28;20439;-85
2021/06/09 02:13:11;;;;;;;14.47;13.20;;;19.60;99.90;;;;;;4991826;28;20466;-83
2021/06/09 02:15:39;;;;;;;13.07;11.97;;;19.60;99.90;;;;;;4991901;28;20431;-83
2021/06/09 02:18:12;;;;;;;14.57;13.37;;;19.50;99.90;;;;;;4983321;28;20443;-85
2021/06/09 02:20:42;;;;;;;14.57;13.37;;;19.60;99.90;;;;;;5018635;28;20493;-84
2021/06/09 02:23:10;;;;;;;14.77;13.27;;;19.60;99.90;;;;;;5003884;28;20502;-86
2021/06/09 02:25:39;;;;;;;14.50;13.20;;;19.80;99.90;;;;;;5027802;28;20536;-86
2021/06/09 02:28:06;;;;;;;14.53;13.03;;;19.70;99.90;;;;;;4992610;28;20915;-82
2021/06/09 02:30:33;;;;;;;15.10;13.57;;;19.70;99.90;;;;;;5000943;28;21051;-86
2021/06/09 02:33:00;;;;;;;15.30;13.90;;;19.70;99.90;;;;;;5011222;28;20455;-89
2021/06/09 02:35:27;;;;;;;15.60;14.13;;;19.60;99.90;;;;;;5000618;28;20466;-87
2021/06/09 02:37:54;;;;;;;14.70;13.40;;;19.60;99.90;;;;;;4984099;28;20428;-88
2021/06/09 02:40:22;;;;;;;15.17;13.73;;;19.50;99.90;;;;;;4983531;28;20463;-85
2021/06/09 02:42:49;;;;;;;15.57;14.00;;;19.50;99.90;;;;;;4982151;28;20513;-86
2021/06/09 02:45:19;;;;;;;15.70;14.30;;;19.50;99.90;;;;;;4999253;28;20466;-86
2021/06/09 02:47:52;;;;;;;14.07;12.80;;;19.40;99.90;;;;;;5002505;28;20458;-88
2021/06/09 02:50:20;;;;;;;15.07;13.50;;;19.50;99.90;;;;;;5003658;28;20455;-86
2021/06/09 02:53:02;;;;;;;14.73;13.37;;;19.40;99.90;;;;;;5002907;28;20489;-84
2021/06/09 02:55:50;;;;;;;15.47;14.07;;;19.30;99.90;;;;;;5005461;28;20461;-87
2021/06/09 02:58:34;;;;;;;13.77;12.50;;;19.00;99.90;;;;;;5005390;28;20461;-84
2021/06/09 03:01:14;;;;;;;14.43;13.13;;;19.00;99.90;;;;;;4988745;28;20533;-85
2021/06/09 03:04:16;;;;;;;14.50;13.00;;;19.10;99.90;;;;;;5007285;28;20482;-85
2021/06/09 03:06:56;;;;;;;16.10;14.27;;;19.20;99.90;;;;;;4967480;28;20477;-86
2021/06/09 03:09:41;;;;;;;15.07;13.27;;;19.00;99.90;;;;;;4992028;28;20453;-85
2021/06/09 03:12:27;;;;;;;15.10;13.70;;;18.90;99.90;;;;;;4991642;28;20442;-88
2021/06/09 03:15:15;;;;;;;16.43;14.87;;;18.90;99.90;;;;;;5008883;28;20447;-85
2021/06/09 03:17:55;;;;;;;14.83;13.50;;;18.80;99.90;;;;;;5008711;28;20522;-84
2021/06/09 03:20:46;;;;;;;15.17;13.77;;;18.80;99.90;;;;;;5008514;28;20463;-86
2021/06/09 03:23:40;;;;;;;15.57;13.60;;;18.80;99.90;;;;;;4993340;28;20510;-86
2021/06/09 03:26:23;;;;;;;13.43;12.30;;;18.90;99.90;;;;;;4993095;28;20489;-88
2021/06/09 03:28:53;;;;;;;15.20;13.90;;;18.80;99.90;;;;;;4991919;28;20459;-84
2021/06/09 03:31:24;;;;;;;15.20;13.70;;;18.90;99.90;;;;;;4992018;28;20455;-86
2021/06/09 03:33:53;;;;;;;16.53;14.93;;;19.20;99.90;;;;;;5009028;28;20604;-84
2021/06/09 03:36:27;;;;;;;15.73;14.40;;;19.00;99.90;;;;;;5009932;28;20443;-86
2021/06/09 03:38:57;;;;;;;17.40;15.80;;;18.90;99.90;;;;;;5009979;28;20449;-83
2021/06/09 03:41:31;;;;;;;16.43;14.70;;;18.80;99.90;;;;;;5008901;28;20443;-86
2021/06/09 03:44:00;;;;;;;17.00;15.20;;;18.70;99.90;;;;;;4663849;28;10000001;-86
2021/06/09 03:46:29;;;;;;;16.33;14.27;;;18.50;99.90;;;;;;4992474;28;20467;-84
2021/06/09 03:48:58;;;;;;;17.27;15.53;;;18.50;99.90;;;;;;4990347;28;20458;-84
2021/06/09 03:51:29;;;;;;;19.10;15.73;;;18.50;99.90;;;;;;4990522;28;20447;-85
2021/06/09 03:53:59;;;;;;;17.70;15.70;;;18.50;99.90;;;;;;4990108;28;20475;-86
2021/06/09 03:56:29;;;;;;;16.73;15.13;;;18.30;99.90;;;;;;5007874;28;20443;-86
2021/06/09 04:02:27;;;;;;;17.43;15.73;;;17.90;99.90;;;;;;5007341;28;20465;-86
2021/06/09 04:08:43;;;;;;;18.43;16.63;;;18.00;99.90;;;;;;5007682;28;20423;-86
2021/06/09 04:11:31;;;;;;;17.63;15.93;;;18.00;99.90;;;;;;4989629;28;20447;-87
2021/06/09 04:16:58;;;;;;;18.27;16.43;;;18.10;99.90;;;;;;5550744;23;20490;-85
2021/06/09 04:23:34;;;;;;;20.33;18.20;;;18.40;99.90;;;;;;4996070;28;20446;-85
2021/06/09 04:26:02;;;;;;;19.40;17.50;;;18.30;99.90;;;;;;5009601;28;20470;-85
2021/06/09 04:28:29;;;;;;;18.33;16.53;;;18.20;99.90;;;;;;4990985;28;20437;-87
2021/06/09 04:30:56;;;;;;;18.10;16.50;;;18.20;99.90;;;;;;5007969;28;20455;-85
2021/06/09 04:33:29;;;;;;;21.20;19.10;;;18.30;99.90;;;;;;5009489;28;20573;-85
2021/06/09 04:35:56;;;;;;;19.90;18.00;;;18.30;99.90;;;;;;5004459;28;20447;-82
2021/06/09 04:38:24;;;;;;;20.90;18.80;;;18.30;99.90;;;;;;5010657;28;20458;-86
2021/06/09 04:40:51;;;;;;;21.07;19.17;;;18.70;99.90;;;;;;5006866;28;20451;-83
2021/06/09 04:43:24;;;;;;;19.93;18.03;;;18.60;99.90;;;;;;4989907;28;20456;-84
2021/06/09 04:45:51;;;;;;;21.63;19.63;;;18.70;99.90;;;;;;5008849;28;20549;-86
2021/06/09 04:48:19;;;;;;;26.73;20.10;;;18.90;99.90;;;;;;4992284;28;20434;-85
2021/06/09 04:50:48;;;;;;;23.90;21.80;;;18.80;99.90;;;;;;5008342;28;20443;-84
2021/06/09 04:53:19;;;;;;;23.53;21.23;;;18.80;99.90;;;;;;5008480;28;20471;-85
2021/06/09 04:55:51;;;;;;;25.17;22.77;;;18.90;99.90;;;;;;4978645;28;20451;-84
2021/06/09 04:58:22;;;;;;;30.80;23.40;;;19.00;99.90;;;;;;4989548;28;20468;-84
2021/06/09 05:00:50;;;;;;;26.60;23.97;;;19.00;99.90;;;;;;4972510;28;20443;-84
2021/06/09 05:03:17;;;;;;;27.30;24.70;;;18.90;99.90;;;;;;4974686;28;20466;-85
2021/06/09 05:05:45;;;;;;;27.50;24.80;;;18.90;99.90;;;;;;5006967;28;20542;-86
2021/06/09 05:08:12;;;;;;;22.60;20.30;;;18.90;99.90;;;;;;4992643;28;20450;-86
2021/06/09 05:10:40;;;;;;;24.37;21.77;;;19.10;99.90;;;;;;4992315;28;20466;-84
2021/06/09 05:13:15;;;;;;;24.93;22.63;;;19.10;99.90;;;;;;5009693;28;20475;-88
2021/06/09 05:15:49;;;;;;;24.60;22.00;;;19.10;99.90;;;;;;5006585;28;20494;-86
2021/06/09 05:18:21;;;;;;;23.50;21.27;;;19.10;99.90;;;;;;4992458;28;20455;-84
2021/06/09 05:20:51;;;;;;;31.90;28.80;;;19.10;99.90;;;;;;4972816;28;20455;-85
2021/06/09 05:23:33;;;;;;;34.17;30.77;;;18.90;99.90;;;;;;4972573;28;20487;-86
2021/06/09 05:26:01;;;;;;;32.53;29.20;;;18.90;99.90;;;;;;4990200;28;20471;-85
2021/06/09 05:28:34;;;;;;;33.23;29.77;;;18.90;99.90;;;;;;4989222;28;20447;-86
2021/06/09 05:31:02;;;;;;;26.97;24.23;;;19.10;99.90;;;;;;4986517;28;20447;-85
2021/06/09 05:33:31;;;;;;;26.67;24.07;;;19.50;99.90;;;;;;4968123;28;20709;-84
2021/06/09 05:35:58;;;;;;;26.17;23.87;;;19.60;99.90;;;;;;4984513;28;20451;-86
2021/06/09 05:38:26;;;;;;;26.53;24.03;;;19.70;99.90;;;;;;4967341;28;21982;-86
2021/06/09 05:40:57;;;;;;;27.70;25.10;;;19.60;99.90;;;;;;4966714;28;20447;-85
2021/06/09 05:43:26;;;;;;;28.03;25.10;;;19.90;99.90;;;;;;4967613;28;20478;-84
2021/06/09 05:45:53;;;;;;;42.70;38.60;;;20.00;99.90;;;;;;4985274;28;20455;-86
2021/06/09 05:48:20;;;;;;;39.50;35.40;;;20.10;99.90;;;;;;4983715;28;20466;-84
2021/06/09 05:50:58;;;;;;;36.77;32.90;;;20.20;99.90;;;;;;4969836;28;20451;-87
2021/06/09 05:53:30;;;;;;;33.13;29.60;;;20.00;99.90;;;;;;4987520;28;21371;-85
2021/06/09 05:55:58;;;;;;;32.60;29.20;;;19.90;99.90;;;;;;4968874;28;20466;-83
2021/06/09 05:58:28;;;;;;;30.30;27.30;;;20.20;99.90;;;;;;4969347;28;20491;-85
2021/06/09 06:01:06;;;;;;;33.37;28.90;;;20.40;99.90;;;;;;4984238;28;21368;-85
2021/06/09 06:03:44;;;;;;;39.30;34.43;;;20.50;99.90;;;;;;4987636;28;20471;-85
2021/06/09 06:06:14;;;;;;;35.37;30.23;;;20.50;99.90;;;;;;4968357;28;20566;-85
2021/06/09 06:08:42;;;;;;;34.70;31.33;;;20.50;99.90;;;;;;4973435;28;20455;-86
2021/06/09 06:11:14;;;;;;;39.10;34.90;;;20.30;99.90;;;;;;4974266;28;20494;-84
2021/06/09 06:13:46;;;;;;;37.90;33.20;;;20.10;99.90;;;;;;5013634;23;20530;-88
2021/06/09 06:16:17;;;;;;;40.90;36.13;;;20.10;99.90;;;;;;4983887;28;20448;-85
2021/06/09 06:18:45;;;;;;;39.80;35.83;;;20.00;99.90;;;;;;4987970;28;20487;-86
2021/06/09 06:21:14;;;;;;;44.60;39.83;;;20.10;99.90;;;;;;4984832;28;20448;-86
2021/06/09 06:23:42;;;;;;;37.70;34.00;;;20.20;99.90;;;;;;4962712;28;20467;-84
2021/06/09 06:26:11;;;;;;;39.70;35.50;;;20.30;99.90;;;;;;4954075;28;20471;-85
2021/06/09 06:28:41;;;;;;;42.13;37.73;;;20.50;99.90;;;;;;4959909;28;20460;-84
2021/06/09 06:31:14;;;;;;;39.27;34.73;;;20.60;99.90;;;;;;4955644;28;20443;-85
2021/06/09 06:33:43;;;;;;;37.37;33.43;;;20.70;99.50;;;;;;4958308;28;20531;-86
2021/06/09 06:36:13;;;;;;;39.30;34.93;;;20.70;99.60;;;;;;4953243;28;20459;-84
2021/06/09 06:38:41;;;;;;;42.20;37.60;;;20.90;99.50;;;;;;4955232;28;20492;-83
2021/06/09 06:41:09;;;;;;;42.10;36.77;;;21.00;98.80;;;;;;4955483;28;20464;-85
2021/06/09 06:43:42;;;;;;;39.43;35.40;;;21.00;98.60;;;;;;4957189;28;21356;-83
2021/06/09 06:46:22;;;;;;;40.87;36.47;;;21.00;98.40;;;;;;4955169;28;20567;-85
2021/06/09 06:48:55;;;;;;;43.77;36.20;;;21.20;98.30;;;;;;4954278;28;20460;-85
2021/06/09 06:51:32;;;;;;;42.73;38.20;;;21.30;97.90;;;;;;4969696;28;20472;-87
2021/06/09 06:54:10;;;;;;;41.20;36.90;;;21.40;97.70;;;;;;4971373;28;21477;-87
2021/06/09 06:57:14;;;;;;;41.87;37.23;;;21.40;97.70;;;;;;4961871;28;20452;-85
2021/06/09 07:00:04;;;;;;;41.80;37.13;;;21.60;97.60;;;;;;4883904;29;20946;-87
2021/06/09 07:03:01;;;;;;;43.33;37.80;;;21.80;97.20;;;;;;4904972;29;20458;-85
2021/06/09 07:05:35;;;;;;;39.67;34.80;;;21.80;96.90;;;;;;4886091;29;20963;-86
2021/06/09 07:12:06;;;;;;;37.90;33.90;;;21.90;97.00;;;;;;4892133;29;20507;-85
2021/06/09 07:14:38;;;;;;;39.53;35.30;;;22.00;96.60;;;;;;4893363;29;20954;-86
2021/06/09 07:17:12;;;;;;;36.53;32.60;;;22.10;96.50;;;;;;4873814;29;20498;-84
2021/06/09 07:19:46;;;;;;;38.47;33.20;;;22.20;96.40;;;;;;4881488;29;20470;-85
2021/06/09 07:22:26;;;;;;;40.37;36.20;;;22.50;96.00;;;;;;4878142;29;20451;-85
2021/06/09 07:29:49;;;;;;;;;;;;;;;;;;;;;
2021/06/09 08:00:18;;;;;;;31.30;28.50;;;24.00;93.00;;;;;;5323087;23;20490;-86
2021/06/09 08:04:04;;;;;;;29.70;26.77;;;23.80;93.10;;;;;;4984285;28;20489;-86
2021/06/09 08:06:34;;;;;;;24.90;22.60;;;23.80;93.20;;;;;;4903696;29;20479;-86
2021/06/09 08:17:28;;;;;;;23.80;21.30;;;24.40;92.40;;;;;;4878911;28;20438;-86
2021/06/09 08:20:35;;;;;;;23.70;21.40;;;24.20;92.60;;;;;;4968626;28;20578;-87
2021/06/09 08:23:02;;;;;;;24.27;21.97;;;24.20;92.70;;;;;;4983198;28;20481;-88
2021/06/09 08:25:39;;;;;;;22.43;20.47;;;24.00;92.40;;;;;;4985091;28;20463;-85
2021/06/09 08:28:39;;;;;;;22.90;21.00;;;24.00;92.70;;;;;;4970997;28;21305;-85
2021/06/09 08:34:45;;;;;;;23.80;21.50;;;25.80;89.60;;;;;;5005766;23;20498;-85
2021/06/09 08:37:27;;;;;;;22.60;20.60;;;25.90;89.30;;;;;;4981874;28;20451;-86
2021/06/09 08:40:13;;;;;;;23.27;21.30;;;25.60;89.40;;;;;;4986429;28;20443;-88
2021/06/09 08:42:49;;;;;;;21.87;20.00;;;25.20;90.10;;;;;;4983185;28;20506;-87
2021/06/09 08:45:16;;;;;;;19.73;17.97;;;25.00;90.70;;;;;;4965856;28;20519;-86
2021/06/09 08:48:47;;;;;;;19.83;18.13;;;25.10;90.60;;;;;;4962187;28;20499;-85
2021/06/09 08:54:17;;;;;;;20.87;19.03;;;26.00;88.90;;;;;;4964938;28;20507;-86
2021/06/09 08:57:14;;;;;;;;;;;;;;;;;;;;;
2021/06/09 08:59:54;;;;;;;20.00;17.97;;;27.70;81.70;;;;;;4965481;28;20568;-87
2021/06/09 09:02:38;;;;;;;19.40;17.53;;;27.10;82.60;;;;;;4963773;28;20643;-86
2021/06/09 09:05:12;;;;;;;18.40;16.70;;;27.00;83.20;;;;;;4966392;28;20555;-86
2021/06/09 09:11:55;;;;;;;20.60;18.73;;;26.90;82.90;;;;;;4947160;28;22081;-86
2021/06/09 09:14:31;;;;;;;24.50;22.40;;;27.10;82.40;;;;;;4953957;28;20476;-86
2021/06/09 09:17:07;;;;;;;21.77;19.97;;;27.40;80.80;;;;;;4965113;28;20570;-85
2021/06/09 09:20:13;;;;;;;21.90;19.87;;;27.50;80.60;;;;;;4966641;28;20466;-87
2021/06/09 09:23:30;;;;;;;22.23;20.40;;;28.20;77.80;;;;;;4957141;28;20538;-86
2021/06/09 09:27:02;;;;;;;22.77;20.50;;;28.70;75.80;;;;;;4969243;28;20456;-86
2021/06/09 09:30:23;;;;;;;23.77;21.70;;;29.40;71.40;;;;;;4972637;28;20567;-85
2021/06/09 09:33:14;;;;;;;22.60;20.60;;;28.20;74.10;;;;;;5145214;23;20465;-83
2021/06/09 09:36:30;;;;;;;23.70;21.70;;;27.60;76.50;;;;;;4987671;28;20971;-85
2021/06/09 09:39:22;;;;;;;43.17;24.73;;;27.70;77.00;;;;;;4975655;28;21251;-84
2021/06/09 09:41:55;;;;;;;19.23;17.53;;;28.00;73.70;;;;;;4983331;28;20555;-85
2021/06/09 09:45:37;;;;;;;18.00;16.50;;;27.40;75.10;;;;;;4953381;28;20441;-85
2021/06/09 09:57:53;;;;;;;18.27;16.37;;;28.00;72.40;;;;;;5101513;22;20507;-88
2021/06/09 10:00:37;;;;;;;15.47;14.07;;;28.60;70.10;;;;;;4982851;28;20443;-86
2021/06/09 10:06:58;;;;;;;14.53;13.37;;;30.10;63.20;;;;;;5013958;23;20515;-85
2021/06/09 10:09:48;;;;;;;15.47;14.27;;;32.20;56.70;;;;;;4985301;28;20462;-84
2021/06/09 10:12:29;;;;;;;15.20;13.87;;;32.50;54.80;;;;;;4960010;28;20478;-86
2021/06/09 10:15:21;;;;;;;14.13;13.13;;;32.90;54.00;;;;;;4981251;28;20539;-85
2021/06/09 10:18:24;;;;;;;;;;;;;;;;;;;;;
2021/06/09 10:21:16;;;;;;;15.80;14.30;;;31.30;54.10;;;;;;4988936;28;20459;-84
2021/06/09 10:24:09;;;;;;;16.00;14.70;;;31.20;55.90;;;;;;4968242;28;20446;-85
2021/06/09 10:27:01;;;;;;;16.47;15.23;;;30.90;56.60;;;;;;4972812;28;20903;-85
2021/06/09 10:29:33;;;;;;;16.50;15.30;;;29.80;59.00;;;;;;4975721;28;21060;-87
2021/06/09 10:32:18;;;;;;;16.47;15.10;;;29.30;60.20;;;;;;4983924;28;20462;-87
2021/06/09 10:35:14;;;;;;;16.60;15.37;;;29.30;60.30;;;;;;4987885;28;20579;-87
2021/06/09 10:38:47;;;;;;;;;;;;;;;;;;;;;
2021/06/09 10:42:06;;;;;;;15.00;13.73;;;29.80;58.30;;;;;;4987520;28;20443;-83
2021/06/09 10:45:14;;;;;;;;;;;;;;;;;;;;;
2021/06/09 10:48:53;;;;;;;18.80;17.30;;;30.20;56.60;;;;;;4994679;28;20511;-85
2021/06/09 10:51:39;;;;;;;18.93;17.40;;;30.00;58.10;;;;;;4981944;28;20512;-88
2021/06/09 10:54:24;;;;;;;18.60;17.00;;;31.10;58.00;;;;;;4990682;23;20499;-88
2021/06/09 10:57:25;;;;;;;21.57;19.77;;;30.30;58.60;;;;;;4959247;28;20452;-86
2021/06/09 11:00:46;;;;;;;22.50;20.53;;;29.50;60.30;;;;;;4933016;28;20478;-84
2021/06/09 11:03:57;;;;;;;23.13;21.47;;;29.30;61.20;;;;;;4907676;28;20456;-84
2021/06/09 11:06:53;;;;;;;22.20;20.37;;;30.30;59.70;;;;;;4945271;28;20557;-87
2021/06/09 11:20:48;;;;;;;19.37;17.87;;;31.60;54.60;;;;;;4924425;28;20450;-85
2021/06/09 11:23:48;;;;;;;17.30;16.00;;;30.80;55.50;;;;;;4975967;28;20578;-86
2021/06/09 11:26:49;;;;;;;17.00;15.80;;;29.50;55.50;;;;;;4968045;28;20458;-85
2021/06/09 11:29:31;;;;;;;19.23;17.83;;;29.00;58.00;;;;;;4965435;28;20506;-86
2021/06/09 11:35:16;;;;;;;15.70;14.13;;;29.10;57.50;;;;;;5001968;28;20474;-85
2021/06/09 11:41:59;;;;;;;16.77;15.57;;;29.80;55.30;;;;;;5004115;28;20418;-85
2021/06/09 11:44:42;;;;;;;16.47;15.17;;;31.10;53.60;;;;;;5004161;28;20466;-85
2021/06/09 11:59:38;;;;;;;;;;;;;;;;;;;;;
2021/06/09 12:03:31;;;;;;;16.70;15.40;;;30.00;55.00;;;;;;4880832;29;20497;-85
2021/06/09 12:05:46;;;;;;;17.53;16.23;;;30.00;56.10;;;;;;4871113;29;20444;-85
2021/06/09 12:08:34;;;;;;;17.70;16.43;;;30.20;56.00;;;;;;4816473;29;20497;-85
2021/06/09 12:11:25;;;;;;;16.70;15.33;;;30.30;55.80;;;;;;4856741;29;20470;-84
2021/06/09 12:18:12;;;;;;;17.13;15.80;;;30.40;54.40;;;;;;4884170;29;20455;-86
2021/06/09 12:21:24;;;;;;;15.60;14.50;;;30.70;53.10;;;;;;4891762;29;21098;-86
2021/06/09 12:24:14;;;;;;;16.00;14.77;;;30.60;53.20;;;;;;4905652;29;20497;-87
2021/06/09 12:27:06;;;;;;;18.00;16.60;;;30.70;53.30;;;;;;4895664;29;20530;-85
2021/06/09 12:29:58;;;;;;;15.03;13.93;;;30.70;52.70;;;;;;4903127;29;20553;-88
2021/06/09 12:32:45;;;;;;;16.37;15.23;;;30.70;53.80;;;;;;4915748;29;20479;-86
2021/06/09 12:35:43;;;;;;;16.60;15.40;;;31.00;53.30;;;;;;4895677;29;20455;-87
2021/06/09 12:38:39;;;;;;;15.60;14.33;;;31.40;53.00;;;;;;4915286;29;20479;-86
2021/06/09 12:41:31;;;;;;;16.07;14.80;;;31.60;51.90;;;;;;4900521;29;20575;-83
2021/06/09 12:49:55;;;;;;;14.70;13.53;;;30.00;55.80;;;;;;3017674;26;10001968;-85
2021/06/09 12:52:34;;;;;;;15.27;14.03;;;30.00;55.90;;;;;;5028842;28;20207;-88
2021/06/09 12:58:58;;;;;;;16.07;14.87;;;30.30;54.80;;;;;;5014355;28;20425;-87
2021/06/09 13:02:05;;;;;;;13.70;12.60;;;30.50;54.20;;;;;;5027983;28;20496;-89
2021/06/09 13:53:34;;;;;;;12.57;11.67;;;29.60;53.90;;;;;;4980777;28;20482;-85
2021/06/09 13:56:51;;;;;;;12.93;11.93;;;29.70;54.20;;;;;;4957605;28;20463;-86
2021/06/09 14:00:33;;;;;;;;;;;;;;;;;;;;;
2021/06/09 14:04:06;;;;;;;12.87;11.87;;;29.60;53.30;;;;;;4981038;28;20470;-85
2021/06/09 14:07:38;;;;;;;;;;;;;;;;;;;;;
2021/06/09 14:29:47;;;;;;;13.90;12.83;;;29.00;54.10;;;;;;4989961;28;20480;-87
2021/06/09 14:39:08;;;;;;;14.40;13.40;;;29.10;53.90;;;;;;5012147;28;20660;-85
2021/06/09 14:41:49;;;;;;;14.23;13.23;;;29.20;54.20;;;;;;5009483;28;21197;-89
2021/06/09 14:44:38;;;;;;;13.60;12.60;;;29.40;54.00;;;;;;4991477;28;20479;-87
2021/06/09 14:48:02;;;;;;;13.67;12.63;;;29.30;53.70;;;;;;4987975;28;20495;-87
2021/06/09 14:50:50;;;;;;;13.47;12.40;;;29.30;53.40;;;;;;4946128;28;20445;-86
2021/06/09 14:53:22;;;;;;;12.37;11.57;;;29.50;53.60;;;;;;4950839;23;20637;-85
2021/06/09 14:55:49;;;;;;;12.40;11.40;;;29.60;52.80;;;;;;4981970;28;21830;-88
2021/06/09 14:58:18;;;;;;;13.60;12.60;;;29.60;53.00;;;;;;4984868;28;20493;-87
2021/06/09 15:00:48;;;;;;;13.30;12.43;;;29.40;52.80;;;;;;4990875;28;20569;-85
2021/06/09 15:03:15;;;;;;;15.43;14.23;;;29.50;53.70;;;;;;4980222;28;21017;-89
2021/06/09 15:05:46;;;;;;;13.70;12.60;;;29.50;53.90;;;;;;4973858;28;20466;-89
2021/06/09 15:08:14;;;;;;;13.23;12.23;;;29.70;53.70;;;;;;4964331;28;20578;-87
2021/06/09 15:10:44;;;;;;;13.10;12.10;;;29.80;54.00;;;;;;4978428;28;20464;-89
2021/06/09 15:13:11;;;;;;;13.07;12.03;;;29.70;53.20;;;;;;4975907;28;20481;-88
2021/06/09 15:15:39;;;;;;;14.73;13.57;;;29.90;53.40;;;;;;4957571;28;20545;-87
2021/06/09 15:18:07;;;;;;;13.30;12.40;;;29.70;53.50;;;;;;4973905;28;20595;-87
2021/06/09 15:20:35;;;;;;;13.47;12.57;;;29.60;54.10;;;;;;4957015;28;20471;-88
2021/06/09 15:23:02;;;;;;;13.40;12.40;;;29.40;54.70;;;;;;4956905;28;20510;-86
2021/06/09 15:25:29;;;;;;;14.53;13.40;;;29.50;55.20;;;;;;4955225;28;20456;-88
2021/06/09 15:27:57;;;;;;;13.60;12.67;;;29.70;54.80;;;;;;4972490;28;20532;-88
2021/06/09 15:30:24;;;;;;;12.57;11.70;;;29.80;54.40;;;;;;4954908;28;20467;-85
2021/06/09 15:32:52;;;;;;;13.07;12.10;;;29.60;54.50;;;;;;4957941;28;20534;-89
2021/06/09 15:35:20;;;;;;;13.77;12.77;;;30.10;53.80;;;;;;4950883;28;20923;-84
2021/06/09 15:37:48;;;;;;;14.67;13.60;;;30.10;53.50;;;;;;4952014;28;20547;-85
2021/06/09 15:40:16;;;;;;;15.67;14.47;;;29.70;53.40;;;;;;4953943;28;20468;-86
2021/06/09 15:42:43;;;;;;;13.70;12.57;;;29.60;53.40;;;;;;4972145;28;20477;-87
2021/06/09 15:45:12;;;;;;;13.43;12.43;;;29.10;54.30;;;;;;4958116;28;20463;-85
2021/06/09 15:47:39;;;;;;;14.13;12.93;;;29.10;54.60;;;;;;4974413;28;21253;-84
2021/06/09 15:50:07;;;;;;;13.50;12.50;;;29.20;54.70;;;;;;4973960;28;20457;-86
2021/06/09 15:52:40;;;;;;;13.10;12.10;;;29.30;54.00;;;;;;4975510;28;20476;-83
2021/06/09 15:55:10;;;;;;;14.40;13.20;;;29.20;53.70;;;;;;4970953;28;20879;-87
2021/06/09 15:57:37;;;;;;;14.17;13.00;;;29.10;54.00;;;;;;4964246;28;20628;-88
2021/06/09 16:00:07;;;;;;;13.57;12.47;;;29.20;54.20;;;;;;4957989;28;20455;-88
2021/06/09 16:02:34;;;;;;;13.47;12.57;;;29.20;54.40;;;;;;4959835;28;20464;-86
2021/06/09 16:05:02;;;;;;;14.90;13.70;;;29.10;54.30;;;;;;4958026;28;20459;-85
2021/06/09 16:07:30;;;;;;;16.23;14.80;;;29.00;54.50;;;;;;4957612;28;20464;-86
2021/06/09 16:09:57;;;;;;;14.87;13.67;;;29.10;54.70;;;;;;4946875;28;20515;-84
2021/06/09 16:12:25;;;;;;;14.90;13.80;;;29.00;54.60;;;;;;4944538;28;20624;-85
2021/06/09 16:14:53;;;;;;;15.17;13.93;;;29.20;54.90;;;;;;4963339;28;21229;-83
2021/06/09 16:17:20;;;;;;;14.50;13.50;;;29.30;54.10;;;;;;4965311;28;20455;-84
2021/06/09 16:19:47;;;;;;;15.43;14.33;;;29.10;54.10;;;;;;4946365;28;20499;-86
2021/06/09 16:22:14;;;;;;;14.70;13.50;;;29.00;54.10;;;;;;4962803;28;20564;-85
2021/06/09 16:24:46;;;;;;;16.00;14.90;;;29.00;54.50;;;;;;4944467;28;20486;-84
2021/06/09 16:27:17;;;;;;;16.27;14.97;;;28.90;54.80;;;;;;4947280;28;20468;-86
2021/06/09 16:29:44;;;;;;;14.23;13.13;;;28.90;54.80;;;;;;4945383;28;20627;-87
2021/06/09 16:32:11;;;;;;;16.83;15.57;;;28.90;54.70;;;;;;4945147;28;21065;-85
2021/06/09 16:34:40;;;;;;;14.27;13.27;;;28.90;55.20;;;;;;4963322;28;21072;-85
2021/06/09 16:37:06;;;;;;;14.67;13.43;;;28.90;55.10;;;;;;4964679;28;20882;-84
2021/06/09 16:39:33;;;;;;;15.30;14.20;;;28.80;54.70;;;;;;4964788;28;20464;-85
2021/06/09 16:42:00;;;;;;;15.30;14.13;;;28.80;55.10;;;;;;4968076;28;20463;-84
2021/06/09 16:44:27;;;;;;;14.87;13.60;;;28.70;55.00;;;;;;4947853;28;20482;-86
2021/06/09 16:46:54;;;;;;;13.53;12.53;;;28.60;55.20;;;;;;4946688;28;20491;-85
2021/06/09 16:49:21;;;;;;;13.57;12.57;;;28.60;55.00;;;;;;4950070;28;20509;-85
2021/06/09 16:51:49;;;;;;;13.73;12.60;;;28.50;55.00;;;;;;4970328;28;20466;-86